createdAt,value
2019-02-27T00:01:25.042Z,13.97
2019-02-27T00:03:54.619Z,13.90
2019-02-27T00:06:24.075Z,15.00
2019-02-27T00:08:53.583Z,14.70
2019-02-27T00:11:24.113Z,14.87
2019-02-27T00:13:57.654Z,15.70
2019-02-27T00:16:24.628Z,14.40
2019-02-27T00:18:58.554Z,15.27
2019-02-27T00:21:25.133Z,15.27
2019-02-27T00:23:56.728Z,14.77
2019-02-27T00:26:25.570Z,15.07
2019-02-27T00:28:56.153Z,15.43
2019-02-27T00:31:26.166Z,15.57
2019-02-27T00:33:59.481Z,17.40
2019-02-27T00:36:26.681Z,15.37
2019-02-27T00:38:57.910Z,16.30
2019-02-27T00:41:27.190Z,17.47
2019-02-27T00:44:01.131Z,15.87
2019-02-27T00:46:27.694Z,15.73
2019-02-27T00:48:59.360Z,15.47
2019-02-27T00:51:28.203Z,15.10
2019-02-27T00:53:58.444Z,14.80
2019-02-27T00:56:28.395Z,15.03
2019-02-27T00:58:59.977Z,15.90
2019-02-27T01:01:28.833Z,16.77
2019-02-27T01:04:00.959Z,16.57
2019-02-27T01:06:29.271Z,16.60
2019-02-27T01:08:58.631Z,17.00
2019-02-27T01:11:28.083Z,17.00
2019-02-27T01:13:57.516Z,15.37
2019-02-27T01:16:27.047Z,15.10
2019-02-27T01:18:56.487Z,14.87
2019-02-27T01:21:25.944Z,14.77
2019-02-27T01:23:55.380Z,14.70
2019-02-27T01:26:24.833Z,14.87
2019-02-27T01:28:54.198Z,13.93
2019-02-27T01:31:24.067Z,14.77
2019-02-27T01:33:54.002Z,14.20
2019-02-27T01:36:24.503Z,15.07
2019-02-27T01:38:54.517Z,15.30
2019-02-27T01:41:24.595Z,14.23
2019-02-27T01:43:54.544Z,14.17
2019-02-27T01:46:27.360Z,16.97
2019-02-27T01:48:55.046Z,14.70
2019-02-27T01:51:25.724Z,14.50
2019-02-27T01:53:55.555Z,14.93
2019-02-27T01:56:28.880Z,13.47
2019-02-27T01:58:56.086Z,17.47
2019-02-27T02:01:29.868Z,16.57
2019-02-27T02:03:56.609Z,15.87
2019-02-27T02:06:26.074Z,15.67
2019-02-27T02:09:10.186Z,16.20
2019-02-27T02:11:41.187Z,15.37
2019-02-27T02:14:22.653Z,16.20
2019-02-27T02:16:58.096Z,15.67
2019-02-27T02:19:45.735Z,15.37
2019-02-27T02:22:23.987Z,16.00
2019-02-27T02:24:56.529Z,15.70
2019-02-27T02:27:43.456Z,14.97
2019-02-27T02:30:40.175Z,16.33
2019-02-27T02:33:28.950Z,16.60
2019-02-27T02:36:24.790Z,15.57
2019-02-27T02:39:04.963Z,16.30
2019-02-27T02:42:04.296Z,14.90
2019-02-27T02:44:42.626Z,15.83
2019-02-27T02:47:33.288Z,15.73
2019-02-27T02:50:17.415Z,15.07
2019-02-27T02:52:58.056Z,14.70
2019-02-27T02:55:32.297Z,16.17
2019-02-27T02:58:22.766Z,15.57
2019-02-27T03:00:55.353Z,15.20
2019-02-27T03:03:53.863Z,14.67
2019-02-27T03:06:35.217Z,13.70
2019-02-27T03:09:30.394Z,14.43
2019-02-27T03:12:31.991Z,14.37
2019-02-27T03:15:13.556Z,12.77
2019-02-27T03:18:04.078Z,14.40
2019-02-27T03:20:44.883Z,14.27
2019-02-27T03:23:43.232Z,15.13
2019-02-27T03:26:24.615Z,14.33
2019-02-27T03:29:05.746Z,14.57
2019-02-27T03:31:44.056Z,13.73
2019-02-27T03:34:47.132Z,14.87
2019-02-27T03:37:16.623Z,14.17
2019-02-27T03:40:04.172Z,16.30
2019-02-27T03:42:59.520Z,14.73
2019-02-27T03:45:38.066Z,14.63
2019-02-27T03:48:27.574Z,14.17
2019-02-27T03:51:02.587Z,14.90
2019-02-27T03:53:38.091Z,15.50
2019-02-27T03:56:27.127Z,14.90
2019-02-27T03:59:17.064Z,14.97
2019-02-27T04:01:56.247Z,14.37
2019-02-27T04:04:31.689Z,15.27
2019-02-27T04:07:31.557Z,14.03
2019-02-27T04:09:59.611Z,14.13
2019-02-27T04:12:29.058Z,14.43
2019-02-27T04:14:58.548Z,15.57
2019-02-27T04:17:29.877Z,15.37
2019-02-27T04:19:59.413Z,15.33
2019-02-27T04:22:28.864Z,15.43
2019-02-27T04:24:58.318Z,15.93
2019-02-27T04:27:27.683Z,15.07
2019-02-27T04:29:57.223Z,13.13
2019-02-27T04:32:26.668Z,14.93
2019-02-27T04:34:56.147Z,15.20
2019-02-27T04:37:25.602Z,14.47
2019-02-27T04:39:55.062Z,13.67
2019-02-27T04:42:25.734Z,14.10
2019-02-27T04:44:55.615Z,13.80
2019-02-27T04:47:28.872Z,14.47
2019-02-27T04:49:56.163Z,14.57
2019-02-27T04:52:25.618Z,15.43
2019-02-27T04:54:55.075Z,14.97
2019-02-27T04:57:24.524Z,13.47
2019-02-27T04:59:53.975Z,14.00
2019-02-27T05:02:23.422Z,13.73
2019-02-27T05:04:52.883Z,12.97
2019-02-27T05:07:22.323Z,13.00
2019-02-27T05:09:51.809Z,14.47
2019-02-27T05:12:21.244Z,14.83
2019-02-27T05:14:50.711Z,13.27
2019-02-27T05:17:21.503Z,13.47
2019-02-27T05:19:52.041Z,12.87
2019-02-27T05:22:26.450Z,12.93
2019-02-27T05:24:52.681Z,12.57
2019-02-27T05:27:22.119Z,12.67
2019-02-27T05:29:51.583Z,12.13
2019-02-27T05:32:21.014Z,12.17
2019-02-27T05:34:50.543Z,12.87
2019-02-27T05:37:20.029Z,13.73
2019-02-27T05:39:51.107Z,13.03
2019-02-27T05:42:20.546Z,14.57
2019-02-27T05:44:50.016Z,13.60
2019-02-27T05:47:22.242Z,12.67
2019-02-27T05:49:51.726Z,14.23
2019-02-27T05:52:21.195Z,14.30
2019-02-27T05:54:50.653Z,13.93
2019-02-27T05:57:23.275Z,14.70
2019-02-27T05:59:52.174Z,13.70
2019-02-27T06:02:21.606Z,14.07
2019-02-27T06:04:51.070Z,13.73
2019-02-27T06:07:20.515Z,14.87
2019-02-27T06:09:50.021Z,13.90
2019-02-27T06:12:19.421Z,14.47
2019-02-27T06:14:48.883Z,14.00
2019-02-27T06:17:18.367Z,13.30
2019-02-27T06:19:47.830Z,14.70
2019-02-27T06:22:17.268Z,14.60
2019-02-27T06:24:46.727Z,13.60
2019-02-27T06:27:17.231Z,13.53
2019-02-27T06:29:46.699Z,13.60
2019-02-27T06:32:16.062Z,13.73
2019-02-27T06:34:45.538Z,14.47
2019-02-27T06:37:15.596Z,12.97
2019-02-27T06:39:45.559Z,13.80
2019-02-27T06:42:15.089Z,12.70
2019-02-27T06:44:44.489Z,13.70
2019-02-27T06:47:13.951Z,14.60
2019-02-27T06:49:43.391Z,14.47
2019-02-27T06:52:12.862Z,14.60
2019-02-27T06:54:42.314Z,13.87
2019-02-27T06:57:11.806Z,13.97
2019-02-27T06:59:41.247Z,14.07
2019-02-27T07:02:10.705Z,13.60
2019-02-27T07:04:40.284Z,12.20
2019-02-27T07:07:09.858Z,13.63
2019-02-27T07:09:39.303Z,13.13
2019-02-27T07:12:08.758Z,12.90
2019-02-27T07:14:39.262Z,12.27
2019-02-27T07:17:09.375Z,13.07
2019-02-27T07:19:38.815Z,13.20
2019-02-27T07:22:09.222Z,13.63
2019-02-27T07:24:39.370Z,13.17
2019-02-27T07:27:08.832Z,12.07
2019-02-27T07:29:38.287Z,12.50
2019-02-27T07:32:07.743Z,12.73
2019-02-27T07:34:37.199Z,12.47
2019-02-27T07:37:06.652Z,12.40
2019-02-27T07:39:37.154Z,12.83
2019-02-27T07:42:06.610Z,13.13
2019-02-27T07:44:35.967Z,11.70
2019-02-27T07:47:05.430Z,11.70
2019-02-27T07:49:34.867Z,11.83
2019-02-27T07:52:04.321Z,13.40
2019-02-27T07:54:33.706Z,13.47
2019-02-27T07:57:03.159Z,12.87
2019-02-27T07:59:32.589Z,12.60
2019-02-27T08:02:03.022Z,13.37
2019-02-27T08:04:32.614Z,13.20
2019-02-27T08:07:02.121Z,13.43
2019-02-27T08:09:31.571Z,14.10
2019-02-27T08:12:01.075Z,13.30
2019-02-27T08:14:30.552Z,15.20
2019-02-27T08:17:00.032Z,14.90
2019-02-27T08:19:29.492Z,15.80
2019-02-27T08:21:58.976Z,15.77
2019-02-27T08:24:28.438Z,16.27
2019-02-27T08:26:57.925Z,14.87
2019-02-27T08:29:27.380Z,14.83
2019-02-27T08:32:07.379Z,15.67
2019-02-27T08:34:36.854Z,15.40
2019-02-27T08:37:06.335Z,16.17
2019-02-27T08:39:35.796Z,15.23
2019-02-27T08:42:05.279Z,16.23
2019-02-27T08:44:34.738Z,15.73
2019-02-27T08:47:04.399Z,15.77
2019-02-27T08:49:33.884Z,16.90
2019-02-27T08:52:03.456Z,16.67
2019-02-27T08:54:33.195Z,14.20
2019-02-27T08:57:03.671Z,14.73
2019-02-27T08:59:33.126Z,14.50
2019-02-27T09:02:02.688Z,15.43
2019-02-27T09:04:32.168Z,16.27
2019-02-27T09:07:02.701Z,15.83
2019-02-27T09:09:32.908Z,16.07
2019-02-27T09:12:03.138Z,16.83
2019-02-27T09:14:32.651Z,16.97
2019-02-27T09:17:02.145Z,18.13
2019-02-27T09:19:31.590Z,16.67
2019-02-27T09:22:02.454Z,17.30
2019-02-27T09:24:32.032Z,16.57
2019-02-27T09:27:01.519Z,16.53
2019-02-27T09:29:30.997Z,17.90
2019-02-27T09:32:00.467Z,17.37
2019-02-27T09:34:29.964Z,16.57
2019-02-27T09:36:59.423Z,16.67
2019-02-27T09:39:31.216Z,17.33
2019-02-27T09:42:00.051Z,16.67
2019-02-27T09:44:29.575Z,16.00
2019-02-27T09:46:59.080Z,16.13
2019-02-27T09:49:28.535Z,16.87
2019-02-27T09:51:58.036Z,16.47
2019-02-27T09:54:27.485Z,16.73
2019-02-27T09:56:56.968Z,16.97
2019-02-27T09:59:26.430Z,16.57
2019-02-27T10:01:57.267Z,16.63
2019-02-27T10:04:28.944Z,16.73
2019-02-27T10:06:58.031Z,17.47
2019-02-27T10:09:27.517Z,16.80
2019-02-27T10:11:57.009Z,16.30
2019-02-27T10:14:27.474Z,16.27
2019-02-27T10:16:56.959Z,17.00
2019-02-27T10:19:27.624Z,16.23
2019-02-27T10:21:57.328Z,16.37
2019-02-27T10:24:26.810Z,16.80
2019-02-27T10:26:56.277Z,16.37
2019-02-27T10:29:25.759Z,15.87
2019-02-27T10:31:55.450Z,16.90
2019-02-27T10:34:25.007Z,16.10
2019-02-27T10:36:54.506Z,17.23
2019-02-27T10:39:23.959Z,17.13
2019-02-27T10:41:53.436Z,18.00
2019-02-27T10:44:22.919Z,17.60
2019-02-27T10:46:52.382Z,16.33
2019-02-27T10:49:22.443Z,17.30
2019-02-27T10:51:51.931Z,16.40
2019-02-27T10:54:21.420Z,16.00
2019-02-27T10:56:50.886Z,15.15
2019-02-27T10:59:22.347Z,15.50
2019-02-27T11:01:51.483Z,15.05
2019-02-27T11:04:21.035Z,13.95
2019-02-27T11:06:51.572Z,11.08
2019-02-27T11:09:23.387Z,10.55
2019-02-27T11:11:53.897Z,9.80
2019-02-27T11:14:25.096Z,10.18
2019-02-27T11:16:55.655Z,8.43
2019-02-27T11:19:26.207Z,7.83
2019-02-27T11:21:58.367Z,8.00
2019-02-27T11:24:26.955Z,7.45
2019-02-27T11:26:57.001Z,6.42
2019-02-27T11:29:26.663Z,6.62
2019-02-27T11:31:56.126Z,6.90
2019-02-27T11:34:25.599Z,6.30
2019-02-27T11:36:55.054Z,7.33
2019-02-27T11:39:24.635Z,6.58
2019-02-27T11:41:54.099Z,8.30
2019-02-27T11:44:23.596Z,18.50
2019-02-27T11:46:58.735Z,17.87
2019-02-27T11:49:24.167Z,16.85
2019-02-27T11:51:53.980Z,15.98
2019-02-27T11:54:23.451Z,16.20
2019-02-27T11:56:56.296Z,19.48
2019-02-27T11:59:24.151Z,18.35
2019-02-27T12:01:56.137Z,18.62
2019-02-27T12:04:24.749Z,19.30
2019-02-27T12:06:54.212Z,18.10
2019-02-27T12:09:24.076Z,18.80
2019-02-27T12:11:53.582Z,19.02
2019-02-27T12:14:23.053Z,18.05
2019-02-27T12:16:52.568Z,18.15
2019-02-27T12:19:23.102Z,16.60
2019-02-27T12:21:52.582Z,17.32
2019-02-27T12:24:22.058Z,17.73
2019-02-27T12:26:51.542Z,16.35
2019-02-27T12:29:20.999Z,3.92
2019-02-27T12:31:50.479Z,3.40
2019-02-27T12:34:19.954Z,4.65
2019-02-27T12:36:49.915Z,4.45
2019-02-27T12:39:20.536Z,4.65
2019-02-27T12:41:50.035Z,3.95
2019-02-27T12:44:19.511Z,5.25
2019-02-27T12:46:49.012Z,4.90
2019-02-27T12:49:20.037Z,6.45
2019-02-27T12:51:49.596Z,5.45
2019-02-27T12:54:19.080Z,6.53
2019-02-27T12:56:48.567Z,6.50
2019-02-27T12:59:18.050Z,6.03
2019-02-27T13:01:50.916Z,6.95
2019-02-27T13:04:20.020Z,6.22
2019-02-27T13:06:49.577Z,6.33
2019-02-27T13:09:19.031Z,6.37
2019-02-27T13:11:48.517Z,6.55
2019-02-27T13:14:18.007Z,7.70
2019-02-27T13:16:49.661Z,6.83
2019-02-27T13:19:18.567Z,8.10
2019-02-27T13:21:48.052Z,6.97
2019-02-27T13:24:17.533Z,7.60
2019-02-27T13:26:47.034Z,6.45
2019-02-27T13:29:20.612Z,6.35
2019-02-27T13:31:51.483Z,6.15
2019-02-27T13:34:19.640Z,5.10
2019-02-27T13:36:49.149Z,5.12
2019-02-27T13:39:18.600Z,5.17
2019-02-27T13:41:48.088Z,4.90
2019-02-27T13:44:17.542Z,5.33
2019-02-27T13:46:47.044Z,4.97
2019-02-27T13:49:16.500Z,5.17
2019-02-27T13:51:46.010Z,5.37
2019-02-27T13:54:16.532Z,4.20
2019-02-27T13:56:46.034Z,3.27
2019-02-27T13:59:15.514Z,3.65
2019-02-27T14:01:44.967Z,3.42
2019-02-27T14:04:14.475Z,3.60
2019-02-27T14:06:47.316Z,3.47
2019-02-27T14:09:15.123Z,3.45
2019-02-27T14:11:44.577Z,3.55
2019-02-27T14:14:17.659Z,3.72
2019-02-27T14:16:46.199Z,3.85
2019-02-27T14:19:15.703Z,4.15
2019-02-27T14:21:45.226Z,3.62
2019-02-27T14:24:14.707Z,3.67
2019-02-27T14:26:44.193Z,3.67
2019-02-27T14:29:13.708Z,3.77
2019-02-27T14:31:43.492Z,3.50
2019-02-27T14:34:13.637Z,4.17
2019-02-27T14:36:43.174Z,3.95
2019-02-27T14:39:14.259Z,3.87
2019-02-27T14:41:47.955Z,3.52
2019-02-27T14:44:14.820Z,3.37
2019-02-27T14:46:45.054Z,3.87
2019-02-27T14:49:15.269Z,3.75
2019-02-27T14:51:44.722Z,4.30
2019-02-27T14:54:14.204Z,3.50
2019-02-27T14:56:43.684Z,3.87
2019-02-27T14:59:13.166Z,3.87
2019-02-27T15:01:42.623Z,4.08
2019-02-27T15:04:12.118Z,3.87
2019-02-27T15:06:41.582Z,3.75
2019-02-27T15:09:11.090Z,3.55
2019-02-27T15:11:40.915Z,3.52
2019-02-27T15:14:10.399Z,3.45
2019-02-27T15:16:39.860Z,3.25
2019-02-27T15:19:09.345Z,3.98
2019-02-27T15:21:38.796Z,3.10
2019-02-27T15:24:08.279Z,3.50
2019-02-27T15:26:44.967Z,3.70
2019-02-27T15:29:10.580Z,3.02
2019-02-27T15:31:40.037Z,3.50
2019-02-27T15:34:12.302Z,3.52
2019-02-27T15:36:41.690Z,3.45
2019-02-27T15:39:11.243Z,3.40
2019-02-27T15:41:42.310Z,3.62
2019-02-27T15:44:13.730Z,3.55
2019-02-27T15:46:42.954Z,3.27
2019-02-27T15:49:16.325Z,4.37
2019-02-27T15:51:49.859Z,3.90
2019-02-27T15:54:23.983Z,3.58
2019-02-27T15:56:50.442Z,4.15
2019-02-27T15:59:19.931Z,4.92
2019-02-27T16:01:49.401Z,3.87
2019-02-27T16:04:21.115Z,4.15
2019-02-27T16:06:51.241Z,4.05
2019-02-27T16:09:21.089Z,4.72
2019-02-27T16:11:51.519Z,4.10
2019-02-27T16:14:21.668Z,4.45
2019-02-27T16:16:51.119Z,4.67
2019-02-27T16:19:20.603Z,4.78
2019-02-27T16:21:50.533Z,4.90
2019-02-27T16:24:20.132Z,5.22
2019-02-27T16:26:49.618Z,4.72
2019-02-27T16:29:19.917Z,6.87
2019-02-27T16:31:50.280Z,4.90
2019-02-27T16:34:19.775Z,4.95
2019-02-27T16:36:50.337Z,4.85
2019-02-27T16:39:19.866Z,5.22
2019-02-27T16:41:49.329Z,4.83
2019-02-27T16:44:21.480Z,5.12
2019-02-27T16:46:49.897Z,5.13
2019-02-27T16:49:19.360Z,6.63
2019-02-27T16:51:48.845Z,5.70
2019-02-27T16:54:19.283Z,4.83
2019-02-27T16:56:50.921Z,6.37
2019-02-27T16:59:19.971Z,7.47
2019-02-27T17:01:49.463Z,6.30
2019-02-27T17:04:18.919Z,6.13
2019-02-27T17:06:49.218Z,7.70
2019-02-27T17:09:20.521Z,6.60
2019-02-27T17:11:50.003Z,6.23
2019-02-27T17:14:21.225Z,6.53
2019-02-27T17:16:50.604Z,6.10
2019-02-27T17:19:20.047Z,6.33
2019-02-27T17:21:49.522Z,5.83
2019-02-27T17:24:21.888Z,6.07
2019-02-27T17:26:50.085Z,6.83
2019-02-27T17:29:19.544Z,6.80
2019-02-27T17:31:52.521Z,6.53
2019-02-27T17:34:20.102Z,6.80
2019-02-27T17:36:49.607Z,6.83
2019-02-27T17:39:22.271Z,7.33
2019-02-27T17:41:52.163Z,6.87
2019-02-27T17:44:21.235Z,8.13
2019-02-27T17:46:51.721Z,7.73
2019-02-27T17:49:22.291Z,7.23
2019-02-27T17:51:52.920Z,8.27
2019-02-27T17:54:22.376Z,7.43
2019-02-27T17:56:51.853Z,7.50
2019-02-27T17:59:21.302Z,8.57
2019-02-27T18:01:50.780Z,6.63
2019-02-27T18:04:20.239Z,7.57
2019-02-27T18:06:49.731Z,6.87
2019-02-27T18:09:19.179Z,7.07
2019-02-27T18:11:49.434Z,8.70
2019-02-27T18:14:19.743Z,8.53
2019-02-27T18:16:49.223Z,8.40
2019-02-27T18:19:18.686Z,7.93
2019-02-27T18:21:48.187Z,8.17
2019-02-27T18:24:17.636Z,7.30
2019-02-27T18:26:49.976Z,5.70
2019-02-27T18:29:19.500Z,6.93
2019-02-27T18:31:48.985Z,6.90
2019-02-27T18:34:21.608Z,6.27
2019-02-27T18:36:51.198Z,6.50
2019-02-27T18:39:20.797Z,6.23
2019-02-27T18:41:50.265Z,6.20
2019-02-27T18:44:19.715Z,5.67
2019-02-27T18:46:49.194Z,5.90
2019-02-27T18:49:19.289Z,5.60
2019-02-27T18:51:48.835Z,5.57
2019-02-27T18:54:21.731Z,5.60
2019-02-27T18:56:49.647Z,5.63
2019-02-27T18:59:19.180Z,6.17
2019-02-27T19:01:48.659Z,5.43
2019-02-27T19:04:18.135Z,6.17
2019-02-27T19:06:47.621Z,6.60
2019-02-27T19:09:17.101Z,6.10
2019-02-27T19:11:47.460Z,6.77
2019-02-27T19:14:18.144Z,6.20
2019-02-27T19:16:47.622Z,6.17
2019-02-27T19:19:17.152Z,5.47
2019-02-27T19:21:46.636Z,6.17
2019-02-27T19:24:16.102Z,6.53
2019-02-27T19:26:45.672Z,6.47
2019-02-27T19:29:15.146Z,6.80
2019-02-27T19:31:48.361Z,7.27
2019-02-27T19:34:16.835Z,7.53
2019-02-27T19:36:46.579Z,7.43
2019-02-27T19:39:18.283Z,6.93
2019-02-27T19:41:47.374Z,6.97
2019-02-27T19:44:16.846Z,6.70
2019-02-27T19:46:47.699Z,6.40
2019-02-27T19:49:17.413Z,7.60
2019-02-27T19:51:46.959Z,7.10
2019-02-27T19:54:18.529Z,7.53
2019-02-27T19:56:47.517Z,6.67
2019-02-27T19:59:17.015Z,5.90
2019-02-27T20:01:49.145Z,7.00
2019-02-27T20:04:17.600Z,6.47
2019-02-27T20:06:47.056Z,6.50
2019-02-27T20:09:20.090Z,6.30
2019-02-27T20:11:47.641Z,6.83
2019-02-27T20:14:17.142Z,6.77
2019-02-27T20:16:46.583Z,7.07
2019-02-27T20:19:22.294Z,6.77
2019-02-27T20:21:47.303Z,6.63
2019-02-27T20:24:16.789Z,6.27
2019-02-27T20:26:46.263Z,6.50
2019-02-27T20:29:15.910Z,5.90
2019-02-27T20:31:45.371Z,7.00
2019-02-27T20:34:14.919Z,6.93
2019-02-27T20:36:44.391Z,6.80
2019-02-27T20:39:13.947Z,6.70
2019-02-27T20:41:44.120Z,6.13
2019-02-27T20:44:14.735Z,6.93
2019-02-27T20:46:46.448Z,7.73
2019-02-27T20:49:15.292Z,7.03
2019-02-27T20:51:44.776Z,7.57
2019-02-27T20:54:14.253Z,7.60
2019-02-27T20:56:43.720Z,6.60
2019-02-27T20:59:13.194Z,7.20
2019-02-27T21:01:46.667Z,7.77
2019-02-27T21:04:13.799Z,7.40
2019-02-27T21:06:47.369Z,7.53
2019-02-27T21:09:14.376Z,8.53
2019-02-27T21:11:43.836Z,7.73
2019-02-27T21:14:13.355Z,7.57
2019-02-27T21:16:45.639Z,7.80
2019-02-27T21:19:14.607Z,6.73
2019-02-27T21:21:44.143Z,7.07
2019-02-27T21:24:13.718Z,7.47
2019-02-27T21:26:43.177Z,7.87
2019-02-27T21:29:13.285Z,7.70
2019-02-27T21:31:44.128Z,7.53
2019-02-27T21:34:13.615Z,7.93
2019-02-27T21:36:43.091Z,8.03
2019-02-27T21:39:13.105Z,7.87
2019-02-27T21:41:45.486Z,7.37
2019-02-27T21:44:22.501Z,7.40
2019-02-27T21:46:47.185Z,7.90
2019-02-27T21:49:16.981Z,7.63
2019-02-27T21:51:48.244Z,6.97
2019-02-27T21:54:17.682Z,8.47
2019-02-27T21:56:49.120Z,7.80
2019-02-27T21:59:18.247Z,7.40
2019-02-27T22:01:48.973Z,7.40
2019-02-27T22:04:18.591Z,8.03
2019-02-27T22:06:48.153Z,8.30
2019-02-27T22:09:17.628Z,8.43
2019-02-27T22:11:47.097Z,8.80
2019-02-27T22:14:16.877Z,8.80
2019-02-27T22:16:47.150Z,8.63
2019-02-27T22:19:18.988Z,8.00
2019-02-27T22:21:47.760Z,8.70
2019-02-27T22:24:20.504Z,9.43
2019-02-27T22:26:48.315Z,10.07
2019-02-27T22:29:17.799Z,9.03
2019-02-27T22:31:47.282Z,9.27
2019-02-27T22:34:16.787Z,9.53
2019-02-27T22:36:46.255Z,9.53
2019-02-27T22:39:15.711Z,9.57
2019-02-27T22:41:45.223Z,9.03
2019-02-27T22:44:14.680Z,10.13
2019-02-27T22:46:44.183Z,10.27
2019-02-27T22:49:13.636Z,9.73
2019-02-27T22:51:45.262Z,9.17
2019-02-27T22:54:14.238Z,10.53
2019-02-27T22:56:43.713Z,9.77
2019-02-27T22:59:13.174Z,10.57
2019-02-27T23:01:49.316Z,11.13
2019-02-27T23:04:17.129Z,10.67
2019-02-27T23:06:47.260Z,11.03
2019-02-27T23:09:19.762Z,11.07
2019-02-27T23:11:49.320Z,11.33
2019-02-27T23:14:19.751Z,11.63
2019-02-27T23:16:50.505Z,11.70
2019-02-27T23:19:19.963Z,11.97
2019-02-27T23:21:49.478Z,12.20
2019-02-27T23:24:19.035Z,12.57
2019-02-27T23:26:51.534Z,11.43
2019-02-27T23:29:20.456Z,12.87
2019-02-27T23:31:49.948Z,12.03
2019-02-27T23:34:19.476Z,12.20
2019-02-27T23:36:48.959Z,12.57
2019-02-27T23:39:18.428Z,13.13
2019-02-27T23:41:47.920Z,13.33
2019-02-27T23:44:17.376Z,13.37
2019-02-27T23:46:51.289Z,13.10
2019-02-27T23:49:17.927Z,12.33
2019-02-27T23:51:48.451Z,12.97
2019-02-27T23:54:17.980Z,13.60
2019-02-27T23:56:47.463Z,14.33
2019-02-27T23:59:16.920Z,12.90
